Amsterdam, New York
Current Conditions -  °F | °C
As of 4:15 AM on Friday 19 Dec 2014 (Local Time) from KNY0 Reporting Station
Overcast Overcast  
Wind Chill: -9°   Ceiling: 3900
Heat Index: -3°   Visibility: 10mi
Dew Point: -7°   Wind: 10mph
Humidity: 75%   Direction: 300°WNW
Pressure: 29.95"   Gusts: 17mph
Location:  42.94°N, 74.19°W
Report Text: KNY0 190915Z AUTO 30009G15KT 10SM SCT021 OVC039 M03/M07 A2995 RMK AO2 T10311070
Loading
Personal Weather Stations






























Interactive Weather Map New forecast layout! Learn more

10-Day Weather Forecast

Advertisements
Track Severe Weather on mobile